sensor_id;sensor_type;location;lat;lon;timestamp;P1;durP1;ratioP1;P2;durP2;ratioP2
20348;SDS011;10332;50.208;18.988;2023-08-06T00:01:22;17.90;;;11.80;;
20348;SDS011;10332;50.208;18.988;2023-08-06T00:03:52;24.00;;;16.65;;
20348;SDS011;10332;50.208;18.988;2023-08-06T00:06:19;20.08;;;14.68;;
20348;SDS011;10332;50.208;18.988;2023-08-06T00:08:47;18.05;;;12.38;;
20348;SDS011;10332;50.208;18.988;2023-08-06T00:11:14;17.98;;;13.00;;
20348;SDS011;10332;50.208;18.988;2023-08-06T00:13:42;17.38;;;12.73;;
20348;SDS011;10332;50.208;18.988;2023-08-06T00:16:10;16.90;;;12.32;;
20348;SDS011;10332;50.208;18.988;2023-08-06T00:18:39;22.90;;;15.10;;
20348;SDS011;10332;50.208;18.988;2023-08-06T00:21:07;12.75;;;9.88;;
20348;SDS011;10332;50.208;18.988;2023-08-06T00:23:35;15.88;;;11.13;;
20348;SDS011;10332;50.208;18.988;2023-08-06T00:26:02;19.23;;;12.85;;
20348;SDS011;10332;50.208;18.988;2023-08-06T00:28:30;16.73;;;12.27;;
20348;SDS011;10332;50.208;18.988;2023-08-06T00:30:57;14.23;;;10.63;;
20348;SDS011;10332;50.208;18.988;2023-08-06T00:33:25;11.32;;;9.02;;
20348;SDS011;10332;50.208;18.988;2023-08-06T00:35:52;8.75;;;7.15;;
20348;SDS011;10332;50.208;18.988;2023-08-06T00:38:20;10.45;;;7.88;;
20348;SDS011;10332;50.208;18.988;2023-08-06T00:40:47;10.68;;;8.05;;
20348;SDS011;10332;50.208;18.988;2023-08-06T00:43:15;13.40;;;9.32;;
20348;SDS011;10332;50.208;18.988;2023-08-06T00:45:42;13.23;;;9.38;;
20348;SDS011;10332;50.208;18.988;2023-08-06T00:48:11;13.48;;;9.32;;
20348;SDS011;10332;50.208;18.988;2023-08-06T00:50:38;14.82;;;10.45;;
20348;SDS011;10332;50.208;18.988;2023-08-06T00:53:06;15.23;;;9.98;;
20348;SDS011;10332;50.208;18.988;2023-08-06T00:55:35;10.20;;;8.43;;
20348;SDS011;10332;50.208;18.988;2023-08-06T00:58:02;10.90;;;7.53;;
20348;SDS011;10332;50.208;18.988;2023-08-06T01:00:31;7.55;;;6.05;;
20348;SDS011;10332;50.208;18.988;2023-08-06T01:02:59;9.95;;;6.80;;
20348;SDS011;10332;50.208;18.988;2023-08-06T01:05:27;9.52;;;7.20;;
20348;SDS011;10332;50.208;18.988;2023-08-06T01:10:39;9.38;;;6.50;;
20348;SDS011;10332;50.208;18.988;2023-08-06T01:16:17;13.10;;;8.95;;
20348;SDS011;10332;50.208;18.988;2023-08-06T01:18:48;11.00;;;8.40;;
20348;SDS011;10332;50.208;18.988;2023-08-06T01:21:18;10.52;;;7.28;;
20348;SDS011;10332;50.208;18.988;2023-08-06T01:23:46;11.30;;;8.20;;
20348;SDS011;10332;50.208;18.988;2023-08-06T01:31:52;7.95;;;6.32;;
20348;SDS011;10332;50.208;18.988;2023-08-06T01:34:24;9.98;;;7.32;;
20348;SDS011;10332;50.208;18.988;2023-08-06T01:36:55;10.73;;;7.50;;
20348;SDS011;10332;50.208;18.988;2023-08-06T01:39:26;8.10;;;6.53;;
20348;SDS011;10332;50.208;18.988;2023-08-06T01:41:54;9.20;;;6.60;;
20348;SDS011;10332;50.208;18.988;2023-08-06T01:44:21;8.82;;;7.00;;
20348;SDS011;10332;50.208;18.988;2023-08-06T01:46:49;5.60;;;4.93;;
20348;SDS011;10332;50.208;18.988;2023-08-06T01:49:16;6.35;;;4.72;;
20348;SDS011;10332;50.208;18.988;2023-08-06T01:51:43;5.13;;;4.20;;
20348;SDS011;10332;50.208;18.988;2023-08-06T01:54:11;6.07;;;4.82;;
20348;SDS011;10332;50.208;18.988;2023-08-06T01:56:38;7.40;;;5.80;;
20348;SDS011;10332;50.208;18.988;2023-08-06T01:59:06;11.57;;;8.00;;
20348;SDS011;10332;50.208;18.988;2023-08-06T02:01:33;10.32;;;7.57;;
20348;SDS011;10332;50.208;18.988;2023-08-06T02:04:01;10.60;;;7.65;;
20348;SDS011;10332;50.208;18.988;2023-08-06T02:06:28;9.88;;;7.97;;
20348;SDS011;10332;50.208;18.988;2023-08-06T02:08:56;9.98;;;7.10;;
20348;SDS011;10332;50.208;18.988;2023-08-06T02:11:23;8.65;;;6.32;;
20348;SDS011;10332;50.208;18.988;2023-08-06T02:13:51;8.50;;;6.18;;
20348;SDS011;10332;50.208;18.988;2023-08-06T02:16:18;18.15;;;13.27;;
20348;SDS011;10332;50.208;18.988;2023-08-06T02:18:46;17.48;;;13.50;;
20348;SDS011;10332;50.208;18.988;2023-08-06T02:21:13;15.43;;;11.45;;
20348;SDS011;10332;50.208;18.988;2023-08-06T02:23:41;12.20;;;9.27;;
20348;SDS011;10332;50.208;18.988;2023-08-06T02:26:08;18.25;;;12.65;;
20348;SDS011;10332;50.208;18.988;2023-08-06T02:28:36;13.93;;;10.90;;
20348;SDS011;10332;50.208;18.988;2023-08-06T02:31:03;13.85;;;11.38;;
20348;SDS011;10332;50.208;18.988;2023-08-06T02:33:31;12.13;;;10.15;;
20348;SDS011;10332;50.208;18.988;2023-08-06T02:35:58;13.68;;;11.10;;
20348;SDS011;10332;50.208;18.988;2023-08-06T02:38:31;19.90;;;15.32;;
20348;SDS011;10332;50.208;18.988;2023-08-06T02:40:59;20.33;;;15.30;;
20348;SDS011;10332;50.208;18.988;2023-08-06T02:43:31;19.80;;;15.68;;
20348;SDS011;10332;50.208;18.988;2023-08-06T02:45:59;22.25;;;17.77;;
20348;SDS011;10332;50.208;18.988;2023-08-06T02:48:27;16.40;;;13.52;;
20348;SDS011;10332;50.208;18.988;2023-08-06T02:50:58;16.15;;;12.95;;
20348;SDS011;10332;50.208;18.988;2023-08-06T02:53:26;16.10;;;12.63;;
20348;SDS011;10332;50.208;18.988;2023-08-06T02:55:54;12.73;;;10.48;;
20348;SDS011;10332;50.208;18.988;2023-08-06T02:58:22;14.25;;;11.00;;
20348;SDS011;10332;50.208;18.988;2023-08-06T03:01:02;18.45;;;15.10;;
20348;SDS011;10332;50.208;18.988;2023-08-06T03:03:34;18.58;;;14.13;;
20348;SDS011;10332;50.208;18.988;2023-08-06T03:06:01;17.35;;;12.77;;
20348;SDS011;10332;50.208;18.988;2023-08-06T03:08:29;14.95;;;12.10;;
20348;SDS011;10332;50.208;18.988;2023-08-06T03:10:56;13.88;;;10.38;;
20348;SDS011;10332;50.208;18.988;2023-08-06T03:13:24;17.98;;;13.95;;
20348;SDS011;10332;50.208;18.988;2023-08-06T03:15:52;17.77;;;14.75;;
20348;SDS011;10332;50.208;18.988;2023-08-06T03:18:25;20.13;;;15.30;;
20348;SDS011;10332;50.208;18.988;2023-08-06T03:20:53;15.00;;;12.18;;
20348;SDS011;10332;50.208;18.988;2023-08-06T03:23:21;21.83;;;14.60;;
20348;SDS011;10332;50.208;18.988;2023-08-06T03:25:48;20.50;;;15.30;;
20348;SDS011;10332;50.208;18.988;2023-08-06T03:28:16;15.60;;;11.45;;
20348;SDS011;10332;50.208;18.988;2023-08-06T03:30:43;16.38;;;12.50;;
20348;SDS011;10332;50.208;18.988;2023-08-06T03:33:11;12.65;;;9.88;;
20348;SDS011;10332;50.208;18.988;2023-08-06T03:35:38;19.92;;;14.35;;
20348;SDS011;10332;50.208;18.988;2023-08-06T03:38:06;22.10;;;15.18;;
20348;SDS011;10332;50.208;18.988;2023-08-06T03:40:34;25.60;;;16.83;;
20348;SDS011;10332;50.208;18.988;2023-08-06T03:43:03;19.77;;;13.90;;
20348;SDS011;10332;50.208;18.988;2023-08-06T03:45:30;24.15;;;15.70;;
20348;SDS011;10332;50.208;18.988;2023-08-06T03:47:58;26.80;;;18.10;;
20348;SDS011;10332;50.208;18.988;2023-08-06T03:50:26;25.00;;;15.88;;
20348;SDS011;10332;50.208;18.988;2023-08-06T03:52:53;19.85;;;13.80;;
20348;SDS011;10332;50.208;18.988;2023-08-06T03:55:21;22.25;;;14.93;;
20348;SDS011;10332;50.208;18.988;2023-08-06T03:57:48;23.33;;;14.35;;
20348;SDS011;10332;50.208;18.988;2023-08-06T04:00:16;22.77;;;14.93;;
20348;SDS011;10332;50.208;18.988;2023-08-06T04:02:44;28.45;;;18.95;;
20348;SDS011;10332;50.208;18.988;2023-08-06T04:05:12;27.73;;;18.15;;
20348;SDS011;10332;50.208;18.988;2023-08-06T04:07:39;28.25;;;18.58;;
20348;SDS011;10332;50.208;18.988;2023-08-06T04:10:07;28.00;;;16.98;;
20348;SDS011;10332;50.208;18.988;2023-08-06T04:12:35;31.27;;;19.02;;
20348;SDS011;10332;50.208;18.988;2023-08-06T04:15:04;29.40;;;17.60;;
20348;SDS011;10332;50.208;18.988;2023-08-06T04:17:33;32.13;;;19.83;;
20348;SDS011;10332;50.208;18.988;2023-08-06T04:20:00;32.05;;;19.50;;
20348;SDS011;10332;50.208;18.988;2023-08-06T04:22:29;24.75;;;16.25;;
20348;SDS011;10332;50.208;18.988;2023-08-06T04:24:56;27.58;;;17.25;;
20348;SDS011;10332;50.208;18.988;2023-08-06T04:27:24;33.35;;;19.48;;
20348;SDS011;10332;50.208;18.988;2023-08-06T04:29:52;33.13;;;19.70;;
20348;SDS011;10332;50.208;18.988;2023-08-06T04:32:19;28.20;;;17.60;;
20348;SDS011;10332;50.208;18.988;2023-08-06T04:34:47;28.27;;;17.15;;
20348;SDS011;10332;50.208;18.988;2023-08-06T04:37:15;31.85;;;19.42;;
20348;SDS011;10332;50.208;18.988;2023-08-06T04:39:42;27.17;;;15.57;;
20348;SDS011;10332;50.208;18.988;2023-08-06T04:42:10;22.25;;;13.15;;
20348;SDS011;10332;50.208;18.988;2023-08-06T04:44:37;19.00;;;11.52;;
20348;SDS011;10332;50.208;18.988;2023-08-06T04:47:05;22.70;;;13.80;;
20348;SDS011;10332;50.208;18.988;2023-08-06T04:49:32;21.98;;;14.27;;
20348;SDS011;10332;50.208;18.988;2023-08-06T04:51:59;24.48;;;14.57;;
20348;SDS011;10332;50.208;18.988;2023-08-06T04:54:27;25.83;;;15.32;;
20348;SDS011;10332;50.208;18.988;2023-08-06T04:56:54;19.67;;;12.52;;
20348;SDS011;10332;50.208;18.988;2023-08-06T04:59:22;19.48;;;13.07;;
20348;SDS011;10332;50.208;18.988;2023-08-06T05:01:49;18.95;;;12.05;;
20348;SDS011;10332;50.208;18.988;2023-08-06T05:04:17;21.63;;;12.88;;
20348;SDS011;10332;50.208;18.988;2023-08-06T05:06:45;19.88;;;12.20;;
20348;SDS011;10332;50.208;18.988;2023-08-06T05:09:12;18.55;;;12.45;;
20348;SDS011;10332;50.208;18.988;2023-08-06T05:11:40;24.92;;;14.82;;
20348;SDS011;10332;50.208;18.988;2023-08-06T05:14:07;26.17;;;16.20;;
20348;SDS011;10332;50.208;18.988;2023-08-06T05:16:35;24.27;;;15.60;;
20348;SDS011;10332;50.208;18.988;2023-08-06T05:19:02;19.33;;;11.32;;
20348;SDS011;10332;50.208;18.988;2023-08-06T05:21:30;12.95;;;8.77;;
20348;SDS011;10332;50.208;18.988;2023-08-06T05:23:57;7.53;;;5.40;;
20348;SDS011;10332;50.208;18.988;2023-08-06T05:26:25;6.95;;;5.53;;
20348;SDS011;10332;50.208;18.988;2023-08-06T05:28:52;5.00;;;4.18;;
20348;SDS011;10332;50.208;18.988;2023-08-06T05:31:19;2.97;;;2.67;;
20348;SDS011;10332;50.208;18.988;2023-08-06T05:33:47;2.45;;;2.20;;
20348;SDS011;10332;50.208;18.988;2023-08-06T05:36:14;2.72;;;1.80;;
20348;SDS011;10332;50.208;18.988;2023-08-06T05:38:44;1.73;;;1.40;;
20348;SDS011;10332;50.208;18.988;2023-08-06T05:41:11;2.05;;;1.65;;
20348;SDS011;10332;50.208;18.988;2023-08-06T05:43:39;3.15;;;1.40;;
20348;SDS011;10332;50.208;18.988;2023-08-06T05:46:07;1.85;;;1.30;;
20348;SDS011;10332;50.208;18.988;2023-08-06T05:48:34;1.05;;;0.95;;
20348;SDS011;10332;50.208;18.988;2023-08-06T05:51:02;1.00;;;1.00;;
20348;SDS011;10332;50.208;18.988;2023-08-06T05:53:29;1.00;;;0.82;;
20348;SDS011;10332;50.208;18.988;2023-08-06T05:55:57;1.48;;;0.85;;
20348;SDS011;10332;50.208;18.988;2023-08-06T05:58:24;0.95;;;0.80;;
20348;SDS011;10332;50.208;18.988;2023-08-06T06:00:55;2.20;;;1.20;;
20348;SDS011;10332;50.208;18.988;2023-08-06T06:03:23;1.20;;;1.10;;
20348;SDS011;10332;50.208;18.988;2023-08-06T06:05:51;2.42;;;2.08;;
20348;SDS011;10332;50.208;18.988;2023-08-06T06:08:18;5.55;;;3.65;;
20348;SDS011;10332;50.208;18.988;2023-08-06T06:10:46;3.80;;;3.20;;
20348;SDS011;10332;50.208;18.988;2023-08-06T06:13:13;1.63;;;1.40;;
20348;SDS011;10332;50.208;18.988;2023-08-06T06:15:41;1.73;;;1.60;;
20348;SDS011;10332;50.208;18.988;2023-08-06T06:18:08;1.52;;;1.02;;
20348;SDS011;10332;50.208;18.988;2023-08-06T06:20:36;10.45;;;7.78;;
20348;SDS011;10332;50.208;18.988;2023-08-06T06:23:03;11.15;;;8.10;;
20348;SDS011;10332;50.208;18.988;2023-08-06T06:25:31;2.83;;;2.30;;
20348;SDS011;10332;50.208;18.988;2023-08-06T06:27:58;1.38;;;0.90;;
20348;SDS011;10332;50.208;18.988;2023-08-06T06:30:26;1.63;;;1.30;;
20348;SDS011;10332;50.208;18.988;2023-08-06T06:32:53;1.30;;;1.20;;
20348;SDS011;10332;50.208;18.988;2023-08-06T06:35:21;1.70;;;1.60;;
20348;SDS011;10332;50.208;18.988;2023-08-06T06:37:48;4.50;;;3.20;;
20348;SDS011;10332;50.208;18.988;2023-08-06T06:40:16;12.45;;;9.05;;
20348;SDS011;10332;50.208;18.988;2023-08-06T06:42:43;8.02;;;6.47;;
20348;SDS011;10332;50.208;18.988;2023-08-06T06:45:11;5.55;;;4.47;;
20348;SDS011;10332;50.208;18.988;2023-08-06T06:47:38;2.20;;;1.00;;
20348;SDS011;10332;50.208;18.988;2023-08-06T06:50:06;1.92;;;0.95;;
20348;SDS011;10332;50.208;18.988;2023-08-06T06:52:34;1.27;;;1.10;;
20348;SDS011;10332;50.208;18.988;2023-08-06T06:55:01;1.15;;;0.90;;
20348;SDS011;10332;50.208;18.988;2023-08-06T06:57:29;1.55;;;0.85;;
20348;SDS011;10332;50.208;18.988;2023-08-06T06:59:57;1.52;;;0.75;;
20348;SDS011;10332;50.208;18.988;2023-08-06T07:02:24;0.80;;;0.70;;
20348;SDS011;10332;50.208;18.988;2023-08-06T07:04:52;0.55;;;0.55;;
20348;SDS011;10332;50.208;18.988;2023-08-06T07:07:19;0.60;;;0.52;;
20348;SDS011;10332;50.208;18.988;2023-08-06T07:09:47;0.70;;;0.70;;
20348;SDS011;10332;50.208;18.988;2023-08-06T07:12:14;1.60;;;1.15;;
20348;SDS011;10332;50.208;18.988;2023-08-06T07:14:42;2.03;;;1.70;;
20348;SDS011;10332;50.208;18.988;2023-08-06T07:17:09;2.22;;;2.00;;
20348;SDS011;10332;50.208;18.988;2023-08-06T07:19:36;0.98;;;0.70;;
20348;SDS011;10332;50.208;18.988;2023-08-06T07:22:04;0.50;;;0.50;;
20348;SDS011;10332;50.208;18.988;2023-08-06T07:24:32;1.30;;;0.40;;
20348;SDS011;10332;50.208;18.988;2023-08-06T07:26:59;0.30;;;0.30;;
20348;SDS011;10332;50.208;18.988;2023-08-06T07:29:27;0.57;;;0.50;;
20348;SDS011;10332;50.208;18.988;2023-08-06T07:31:55;0.73;;;0.60;;
20348;SDS011;10332;50.208;18.988;2023-08-06T07:34:22;0.82;;;0.55;;
20348;SDS011;10332;50.208;18.988;2023-08-06T07:36:50;0.68;;;0.63;;
20348;SDS011;10332;50.208;18.988;2023-08-06T07:39:17;3.05;;;2.75;;
20348;SDS011;10332;50.208;18.988;2023-08-06T07:41:45;2.22;;;1.92;;
20348;SDS011;10332;50.208;18.988;2023-08-06T07:44:12;4.13;;;3.03;;
20348;SDS011;10332;50.208;18.988;2023-08-06T07:46:40;5.60;;;3.97;;
20348;SDS011;10332;50.208;18.988;2023-08-06T07:49:08;1.95;;;1.48;;
20348;SDS011;10332;50.208;18.988;2023-08-06T07:51:38;1.17;;;0.95;;
20348;SDS011;10332;50.208;18.988;2023-08-06T07:54:05;0.80;;;0.80;;
20348;SDS011;10332;50.208;18.988;2023-08-06T07:56:33;0.68;;;0.68;;
20348;SDS011;10332;50.208;18.988;2023-08-06T07:59:02;1.65;;;1.52;;
20348;SDS011;10332;50.208;18.988;2023-08-06T08:01:30;3.13;;;2.50;;
20348;SDS011;10332;50.208;18.988;2023-08-06T08:03:57;4.18;;;3.38;;
20348;SDS011;10332;50.208;18.988;2023-08-06T08:06:25;6.88;;;5.15;;
20348;SDS011;10332;50.208;18.988;2023-08-06T08:08:52;5.57;;;4.75;;
20348;SDS011;10332;50.208;18.988;2023-08-06T08:11:20;3.85;;;3.20;;
20348;SDS011;10332;50.208;18.988;2023-08-06T08:13:47;6.28;;;5.28;;
20348;SDS011;10332;50.208;18.988;2023-08-06T08:16:15;5.10;;;4.60;;
20348;SDS011;10332;50.208;18.988;2023-08-06T08:18:42;1.90;;;1.73;;
20348;SDS011;10332;50.208;18.988;2023-08-06T08:21:09;1.00;;;0.90;;
20348;SDS011;10332;50.208;18.988;2023-08-06T08:23:37;0.50;;;0.40;;
20348;SDS011;10332;50.208;18.988;2023-08-06T08:26:06;0.47;;;0.40;;
20348;SDS011;10332;50.208;18.988;2023-08-06T08:28:33;0.50;;;0.30;;
20348;SDS011;10332;50.208;18.988;2023-08-06T08:31:01;0.30;;;0.20;;
20348;SDS011;10332;50.208;18.988;2023-08-06T08:33:29;0.13;;;0.10;;
20348;SDS011;10332;50.208;18.988;2023-08-06T08:35:57;0.30;;;0.10;;
20348;SDS011;10332;50.208;18.988;2023-08-06T08:38:24;0.10;;;0.10;;
20348;SDS011;10332;50.208;18.988;2023-08-06T08:40:53;0.40;;;0.20;;
20348;SDS011;10332;50.208;18.988;2023-08-06T08:43:22;1.85;;;0.30;;
20348;SDS011;10332;50.208;18.988;2023-08-06T08:45:51;0.20;;;0.17;;
20348;SDS011;10332;50.208;18.988;2023-08-06T08:48:22;0.95;;;0.60;;
20348;SDS011;10332;50.208;18.988;2023-08-06T08:50:50;0.88;;;0.70;;
20348;SDS011;10332;50.208;18.988;2023-08-06T08:53:18;0.40;;;0.40;;
20348;SDS011;10332;50.208;18.988;2023-08-06T08:55:48;1.00;;;0.35;;
20348;SDS011;10332;50.208;18.988;2023-08-06T08:58:16;1.17;;;0.55;;
20348;SDS011;10332;50.208;18.988;2023-08-06T09:00:47;0.20;;;0.20;;
20348;SDS011;10332;50.208;18.988;2023-08-06T09:03:15;0.40;;;0.20;;
20348;SDS011;10332;50.208;18.988;2023-08-06T09:05:45;3.92;;;3.03;;
20348;SDS011;10332;50.208;18.988;2023-08-06T09:08:18;3.53;;;3.22;;
20348;SDS011;10332;50.208;18.988;2023-08-06T09:10:54;3.53;;;2.85;;
20348;SDS011;10332;50.208;18.988;2023-08-06T09:13:23;1.70;;;1.35;;
20348;SDS011;10332;50.208;18.988;2023-08-06T09:15:50;0.47;;;0.47;;
20348;SDS011;10332;50.208;18.988;2023-08-06T09:18:24;0.40;;;0.40;;
20348;SDS011;10332;50.208;18.988;2023-08-06T09:20:57;0.20;;;0.20;;
20348;SDS011;10332;50.208;18.988;2023-08-06T09:23:28;0.25;;;0.20;;
20348;SDS011;10332;50.208;18.988;2023-08-06T09:25:58;1.77;;;0.20;;
20348;SDS011;10332;50.208;18.988;2023-08-06T09:28:38;0.60;;;0.40;;
20348;SDS011;10332;50.208;18.988;2023-08-06T09:31:09;0.45;;;0.43;;
20348;SDS011;10332;50.208;18.988;2023-08-06T09:33:37;0.20;;;0.20;;
20348;SDS011;10332;50.208;18.988;2023-08-06T09:36:09;0.68;;;0.28;;
20348;SDS011;10332;50.208;18.988;2023-08-06T09:38:38;2.58;;;2.28;;
20348;SDS011;10332;50.208;18.988;2023-08-06T09:41:07;8.07;;;6.47;;
20348;SDS011;10332;50.208;18.988;2023-08-06T09:43:41;3.90;;;3.08;;
20348;SDS011;10332;50.208;18.988;2023-08-06T09:46:10;3.55;;;2.83;;
20348;SDS011;10332;50.208;18.988;2023-08-06T09:48:46;1.73;;;1.38;;
20348;SDS011;10332;50.208;18.988;2023-08-06T09:51:15;0.20;;;0.20;;
20348;SDS011;10332;50.208;18.988;2023-08-06T09:53:43;0.70;;;0.50;;
20348;SDS011;10332;50.208;18.988;2023-08-06T09:56:13;0.43;;;0.35;;
20348;SDS011;10332;50.208;18.988;2023-08-06T09:58:42;0.35;;;0.30;;
20348;SDS011;10332;50.208;18.988;2023-08-06T10:01:13;0.55;;;0.40;;
20348;SDS011;10332;50.208;18.988;2023-08-06T10:03:44;1.92;;;0.30;;
20348;SDS011;10332;50.208;18.988;2023-08-06T10:06:14;0.85;;;0.45;;
20348;SDS011;10332;50.208;18.988;2023-08-06T10:08:41;0.88;;;0.30;;
20348;SDS011;10332;50.208;18.988;2023-08-06T10:11:09;0.40;;;0.40;;
20348;SDS011;10332;50.208;18.988;2023-08-06T10:13:37;1.30;;;0.90;;
20348;SDS011;10332;50.208;18.988;2023-08-06T10:16:06;0.60;;;0.47;;
20348;SDS011;10332;50.208;18.988;2023-08-06T10:18:35;0.43;;;0.40;;
20348;SDS011;10332;50.208;18.988;2023-08-06T10:21:07;1.10;;;0.50;;
20348;SDS011;10332;50.208;18.988;2023-08-06T10:23:36;0.88;;;0.50;;
20348;SDS011;10332;50.208;18.988;2023-08-06T10:26:07;0.70;;;0.50;;
20348;SDS011;10332;50.208;18.988;2023-08-06T10:28:38;1.42;;;0.70;;
20348;SDS011;10332;50.208;18.988;2023-08-06T10:31:07;2.85;;;2.30;;
20348;SDS011;10332;50.208;18.988;2023-08-06T10:33:44;3.45;;;2.70;;
20348;SDS011;10332;50.208;18.988;2023-08-06T10:36:14;3.70;;;2.50;;
20348;SDS011;10332;50.208;18.988;2023-08-06T10:38:45;0.55;;;0.55;;
20348;SDS011;10332;50.208;18.988;2023-08-06T10:44:08;0.57;;;0.40;;
20348;SDS011;10332;50.208;18.988;2023-08-06T10:46:37;0.50;;;0.28;;
20348;SDS011;10332;50.208;18.988;2023-08-06T10:49:05;0.40;;;0.40;;
20348;SDS011;10332;50.208;18.988;2023-08-06T10:51:34;0.40;;;0.40;;
20348;SDS011;10332;50.208;18.988;2023-08-06T10:54:03;1.02;;;0.98;;
20348;SDS011;10332;50.208;18.988;2023-08-06T10:56:31;1.20;;;1.08;;
20348;SDS011;10332;50.208;18.988;2023-08-06T10:59:08;1.73;;;1.52;;
20348;SDS011;10332;50.208;18.988;2023-08-06T11:01:37;1.60;;;1.50;;
20348;SDS011;10332;50.208;18.988;2023-08-06T11:04:05;3.90;;;3.22;;
20348;SDS011;10332;50.208;18.988;2023-08-06T11:06:33;1.60;;;1.45;;
20348;SDS011;10332;50.208;18.988;2023-08-06T11:09:01;1.25;;;0.90;;
20348;SDS011;10332;50.208;18.988;2023-08-06T11:11:29;2.22;;;1.33;;
20348;SDS011;10332;50.208;18.988;2023-08-06T11:13:56;0.60;;;0.40;;
20348;SDS011;10332;50.208;18.988;2023-08-06T11:16:24;0.30;;;0.30;;
20348;SDS011;10332;50.208;18.988;2023-08-06T11:18:51;0.30;;;0.30;;
20348;SDS011;10332;50.208;18.988;2023-08-06T11:21:21;9.05;;;6.72;;
20348;SDS011;10332;50.208;18.988;2023-08-06T11:23:49;2.10;;;1.40;;
20348;SDS011;10332;50.208;18.988;2023-08-06T11:26:19;1.05;;;0.60;;
20348;SDS011;10332;50.208;18.988;2023-08-06T11:28:47;1.05;;;0.55;;
20348;SDS011;10332;50.208;18.988;2023-08-06T11:31:19;1.13;;;0.52;;
20348;SDS011;10332;50.208;18.988;2023-08-06T11:33:51;1.23;;;0.73;;
20348;SDS011;10332;50.208;18.988;2023-08-06T11:36:34;6.07;;;4.47;;
20348;SDS011;10332;50.208;18.988;2023-08-06T11:39:07;8.57;;;6.72;;
20348;SDS011;10332;50.208;18.988;2023-08-06T11:41:37;1.00;;;0.90;;
20348;SDS011;10332;50.208;18.988;2023-08-06T11:44:06;0.88;;;0.75;;
20348;SDS011;10332;50.208;18.988;2023-08-06T11:46:53;2.33;;;2.08;;
20348;SDS011;10332;50.208;18.988;2023-08-06T11:55:05;2.90;;;2.50;;
20348;SDS011;10332;50.208;18.988;2023-08-06T11:57:38;1.95;;;1.52;;
20348;SDS011;10332;50.208;18.988;2023-08-06T12:00:11;0.88;;;0.60;;
20348;SDS011;10332;50.208;18.988;2023-08-06T12:02:41;0.70;;;0.50;;
20348;SDS011;10332;50.208;18.988;2023-08-06T12:05:15;0.45;;;0.20;;
20348;SDS011;10332;50.208;18.988;2023-08-06T12:07:49;0.30;;;0.30;;
20348;SDS011;10332;50.208;18.988;2023-08-06T12:10:19;0.30;;;0.20;;
20348;SDS011;10332;50.208;18.988;2023-08-06T12:12:49;0.85;;;0.50;;
20348;SDS011;10332;50.208;18.988;2023-08-06T12:15:18;1.27;;;0.50;;
20348;SDS011;10332;50.208;18.988;2023-08-06T12:17:46;1.05;;;0.90;;
20348;SDS011;10332;50.208;18.988;2023-08-06T12:20:14;1.23;;;0.80;;
20348;SDS011;10332;50.208;18.988;2023-08-06T12:22:42;3.88;;;2.53;;
20348;SDS011;10332;50.208;18.988;2023-08-06T12:25:10;0.60;;;0.60;;
20348;SDS011;10332;50.208;18.988;2023-08-06T12:27:43;4.05;;;2.97;;
20348;SDS011;10332;50.208;18.988;2023-08-06T12:30:12;1.60;;;1.50;;
20348;SDS011;10332;50.208;18.988;2023-08-06T12:32:40;1.70;;;1.50;;
20348;SDS011;10332;50.208;18.988;2023-08-06T12:35:08;2.72;;;1.67;;
20348;SDS011;10332;50.208;18.988;2023-08-06T12:37:36;1.38;;;0.68;;
20348;SDS011;10332;50.208;18.988;2023-08-06T12:40:05;0.63;;;0.60;;
20348;SDS011;10332;50.208;18.988;2023-08-06T12:42:53;1.75;;;1.15;;
20348;SDS011;10332;50.208;18.988;2023-08-06T12:45:21;0.60;;;0.60;;
20348;SDS011;10332;50.208;18.988;2023-08-06T12:47:49;1.85;;;1.35;;
20348;SDS011;10332;50.208;18.988;2023-08-06T12:50:17;0.75;;;0.73;;
20348;SDS011;10332;50.208;18.988;2023-08-06T12:52:45;2.35;;;1.13;;
20348;SDS011;10332;50.208;18.988;2023-08-06T12:55:12;6.00;;;4.30;;
20348;SDS011;10332;50.208;18.988;2023-08-06T12:57:40;2.80;;;1.98;;
20348;SDS011;10332;50.208;18.988;2023-08-06T13:00:10;0.65;;;0.45;;
20348;SDS011;10332;50.208;18.988;2023-08-06T13:02:38;0.40;;;0.40;;
20348;SDS011;10332;50.208;18.988;2023-08-06T13:05:05;0.57;;;0.43;;
20348;SDS011;10332;50.208;18.988;2023-08-06T13:07:33;1.70;;;0.93;;
20348;SDS011;10332;50.208;18.988;2023-08-06T13:10:01;1.17;;;1.00;;
20348;SDS011;10332;50.208;18.988;2023-08-06T13:12:28;0.40;;;0.40;;
20348;SDS011;10332;50.208;18.988;2023-08-06T13:14:56;1.15;;;1.00;;
20348;SDS011;10332;50.208;18.988;2023-08-06T13:17:26;1.33;;;0.95;;
20348;SDS011;10332;50.208;18.988;2023-08-06T13:19:53;0.77;;;0.70;;
20348;SDS011;10332;50.208;18.988;2023-08-06T13:22:21;1.15;;;0.90;;
20348;SDS011;10332;50.208;18.988;2023-08-06T13:24:48;0.43;;;0.22;;
20348;SDS011;10332;50.208;18.988;2023-08-06T13:27:16;0.60;;;0.52;;
20348;SDS011;10332;50.208;18.988;2023-08-06T13:29:43;0.57;;;0.30;;
20348;SDS011;10332;50.208;18.988;2023-08-06T13:32:11;0.40;;;0.40;;
20348;SDS011;10332;50.208;18.988;2023-08-06T13:34:38;0.30;;;0.30;;
20348;SDS011;10332;50.208;18.988;2023-08-06T13:37:06;0.20;;;0.20;;
20348;SDS011;10332;50.208;18.988;2023-08-06T13:39:33;0.35;;;0.35;;
20348;SDS011;10332;50.208;18.988;2023-08-06T13:42:01;0.30;;;0.20;;
20348;SDS011;10332;50.208;18.988;2023-08-06T13:44:29;0.40;;;0.20;;
20348;SDS011;10332;50.208;18.988;2023-08-06T13:46:56;0.20;;;0.20;;
20348;SDS011;10332;50.208;18.988;2023-08-06T13:49:23;0.20;;;0.17;;
20348;SDS011;10332;50.208;18.988;2023-08-06T13:51:51;0.38;;;0.20;;
20348;SDS011;10332;50.208;18.988;2023-08-06T13:54:19;1.40;;;0.60;;
20348;SDS011;10332;50.208;18.988;2023-08-06T13:56:48;1.17;;;1.08;;
20348;SDS011;10332;50.208;18.988;2023-08-06T13:59:16;2.92;;;2.15;;
20348;SDS011;10332;50.208;18.988;2023-08-06T14:01:45;6.00;;;4.70;;
20348;SDS011;10332;50.208;18.988;2023-08-06T14:04:18;1.77;;;1.67;;
20348;SDS011;10332;50.208;18.988;2023-08-06T14:06:48;0.52;;;0.30;;
20348;SDS011;10332;50.208;18.988;2023-08-06T14:09:15;0.22;;;0.20;;
20348;SDS011;10332;50.208;18.988;2023-08-06T14:11:45;0.30;;;0.30;;
20348;SDS011;10332;50.208;18.988;2023-08-06T14:14:13;0.70;;;0.10;;
20348;SDS011;10332;50.208;18.988;2023-08-06T14:16:40;0.22;;;0.20;;
20348;SDS011;10332;50.208;18.988;2023-08-06T14:19:08;0.47;;;0.30;;
20348;SDS011;10332;50.208;18.988;2023-08-06T14:21:35;0.75;;;0.40;;
20348;SDS011;10332;50.208;18.988;2023-08-06T14:24:03;0.60;;;0.50;;
20348;SDS011;10332;50.208;18.988;2023-08-06T14:26:30;0.82;;;0.60;;
20348;SDS011;10332;50.208;18.988;2023-08-06T14:28:58;0.50;;;0.35;;
20348;SDS011;10332;50.208;18.988;2023-08-06T14:31:25;1.08;;;0.45;;
20348;SDS011;10332;50.208;18.988;2023-08-06T14:33:53;0.35;;;0.35;;
20348;SDS011;10332;50.208;18.988;2023-08-06T14:36:21;0.38;;;0.38;;
20348;SDS011;10332;50.208;18.988;2023-08-06T14:38:48;2.63;;;2.17;;
20348;SDS011;10332;50.208;18.988;2023-08-06T14:41:26;5.45;;;4.35;;
20348;SDS011;10332;50.208;18.988;2023-08-06T14:43:53;3.88;;;2.00;;
20348;SDS011;10332;50.208;18.988;2023-08-06T14:46:21;5.90;;;4.28;;
20348;SDS011;10332;50.208;18.988;2023-08-06T14:48:48;0.68;;;0.57;;
20348;SDS011;10332;50.208;18.988;2023-08-06T14:51:16;0.63;;;0.52;;
20348;SDS011;10332;50.208;18.988;2023-08-06T14:53:47;0.90;;;0.38;;
20348;SDS011;10332;50.208;18.988;2023-08-06T14:56:15;0.35;;;0.30;;